Thunder radar more information blitzortung!


Radar de pluja more information rain snow radar


Visita la nostra xarxa de llocs de meteo:

Template documentation
and downloads

And another site



Extreme low temperature From: 13-12-2017 09:00 Until: 09:59 warning for: Extreme low temperature Level: Yellow info button

Pagina Historial Weather Underground text

Diari Resum Agost 4, 2017 Unitats:  Tant    Imperial   Mètric
« Previous Dia
SegĂźent Dia »
Diari Setmana Mensual Anual Personalitzada
  Maxima: Minima: Media:
Temperatura: 102 °F /  38.9 °C 72.1 °F /  22.3 °C 88.3 °F /  31.3 °C
Punt de rosada: 66.6 °F /  19.2 °C 54 °F /  12.2 °C 62.8 °F /  17.1 °C
Humitat: 71 % 28 % 46 %
Wind Speed: 11.5 mph /  18.5 km/h - 3.7 mph /  5.9 km/h
RĂ fegues de vent: 11.5 mph /  18.5 km/h - -
Vent:- - South
Pression baro: 30 in /  1014.8 hPa 29.8 in /  1010.0 hPa -
Precipitacions: 0 in /  0.0 mm    
Historical Graphs
 
 
Dades de taula per Agost 4, 2017
Temps Temperatura Punt de rosada Pression baro Vent Wind Speed RĂ fegues de vent Humitat Rainfall Rate (Hourly)
00:02 84.6 °F /  29.2 °C 54 °F /  12.2 °C 29.9 in /  1011.7 hPa Calm     35 % 0 in /  0.0 mm
00:05 73.9 °F /  23.3 °C 61.3 °F /  16.3 °C 29.9 in /  1013.8 hPa Calm     65 % 0 in /  0.0 mm
00:07 84.2 °F /  29.0 °C 54.3 °F /  12.4 °C 29.9 in /  1011.7 hPa Calm     36 % 0 in /  0.0 mm
00:12 83.8 °F /  28.8 °C 54.9 °F /  12.7 °C 29.9 in /  1011.7 hPa Calm     37 % 0 in /  0.0 mm
00:15 73.9 °F /  23.3 °C 61 °F /  16.1 °C 29.9 in /  1013.8 hPa Calm     64 % 0 in /  0.0 mm
00:17 83.5 °F /  28.6 °C 54.5 °F /  12.5 °C 29.9 in /  1012.8 hPa Calm     37 % 0 in /  0.0 mm
00:25 73.8 °F /  23.2 °C 60.8 °F /  16.0 °C 29.9 in /  1013.8 hPa Calm     64 % 0 in /  0.0 mm
00:35 73.8 °F /  23.2 °C 60.8 °F /  16.0 °C 29.9 in /  1012.8 hPa Calm     64 % 0 in /  0.0 mm
00:45 73.6 °F /  23.1 °C 61.2 °F /  16.2 °C 29.9 in /  1012.8 hPa Calm     65 % 0 in /  0.0 mm
00:55 73.2 °F /  22.9 °C 60.6 °F /  15.9 °C 29.9 in /  1013.8 hPa NW 1 mph /  1.6 km/h 1 mph /  1.6 km/h 65 % 0 in /  0.0 mm
01:05 73 °F /  22.8 °C 61 °F /  16.1 °C 29.9 in /  1013.8 hPa Calm   1 mph /  1.6 km/h 66 % 0 in /  0.0 mm
01:15 72.9 °F /  22.7 °C 60.8 °F /  16.0 °C 29.9 in /  1013.8 hPa Calm     66 % 0 in /  0.0 mm
01:25 72.7 °F /  22.6 °C 60.3 °F /  15.7 °C 29.9 in /  1013.8 hPa Calm   1 mph /  1.6 km/h 65 % 0 in /  0.0 mm
01:35 72.3 °F /  22.4 °C 60.3 °F /  15.7 °C 29.9 in /  1013.8 hPa Calm     66 % 0 in /  0.0 mm
01:45 72.1 °F /  22.3 °C 60.3 °F /  15.7 °C 29.9 in /  1013.8 hPa WNW 1 mph /  1.6 km/h 1 mph /  1.6 km/h 66 % 0 in /  0.0 mm
01:55 72.1 °F /  22.3 °C 60.3 °F /  15.7 °C 29.9 in /  1013.8 hPa NNW 1 mph /  1.6 km/h 2 mph /  3.2 km/h 66 % 0 in /  0.0 mm
02:05 72.1 °F /  22.3 °C 60.3 °F /  15.7 °C 29.9 in /  1013.8 hPa North 1 mph /  1.6 km/h 1 mph /  1.6 km/h 66 % 0 in /  0.0 mm
02:15 72.1 °F /  22.3 °C 60.6 °F /  15.9 °C 29.9 in /  1013.8 hPa Calm   2 mph /  3.2 km/h 67 % 0 in /  0.0 mm
02:25 72.5 °F /  22.5 °C 60.4 °F /  15.8 °C 29.9 in /  1013.8 hPa Calm   1 mph /  1.6 km/h 66 % 0 in /  0.0 mm
02:35 73 °F /  22.8 °C 60.6 °F /  15.9 °C 29.9 in /  1013.8 hPa Calm   1 mph /  1.6 km/h 65 % 0 in /  0.0 mm
02:45 73.8 °F /  23.2 °C 60.8 °F /  16.0 °C 29.9 in /  1013.8 hPa Calm   1 mph /  1.6 km/h 64 % 0 in /  0.0 mm
02:55 73.6 °F /  23.1 °C 60.6 °F /  15.9 °C 29.9 in /  1013.8 hPa East 1 mph /  1.6 km/h 1 mph /  1.6 km/h 64 % 0 in /  0.0 mm
03:05 73 °F /  22.8 °C 60.1 °F /  15.6 °C 29.9 in /  1013.8 hPa SW 2 mph /  3.2 km/h 2 mph /  3.2 km/h 64 % 0 in /  0.0 mm
03:15 74.1 °F /  23.4 °C 61.2 °F /  16.2 °C 29.9 in /  1013.8 hPa Calm   2 mph /  3.2 km/h 64 % 0 in /  0.0 mm
03:25 75.2 °F /  24.0 °C 61.3 °F /  16.3 °C 30 in /  1014.8 hPa SE 1 mph /  1.6 km/h 2 mph /  3.2 km/h 62 % 0 in /  0.0 mm
03:35 75.9 °F /  24.4 °C 61 °F /  16.1 °C 29.9 in /  1013.8 hPa East 1 mph /  1.6 km/h 2 mph /  3.2 km/h 60 % 0 in /  0.0 mm
03:45 77.2 °F /  25.1 °C 61.7 °F /  16.5 °C 29.9 in /  1013.8 hPa East 1 mph /  1.6 km/h 2 mph /  3.2 km/h 59 % 0 in /  0.0 mm
03:55 77.7 °F /  25.4 °C 61.3 °F /  16.3 °C 29.9 in /  1013.8 hPa ESE 1 mph /  1.6 km/h 1 mph /  1.6 km/h 57 % 0 in /  0.0 mm
04:05 79.2 °F /  26.2 °C 62.1 °F /  16.7 °C 29.9 in /  1013.8 hPa Calm   2 mph /  3.2 km/h 56 % 0 in /  0.0 mm
04:15 80.2 °F /  26.8 °C 62.6 °F /  17.0 °C 29.9 in /  1013.8 hPa SE 1 mph /  1.6 km/h 1 mph /  1.6 km/h 55 % 0 in /  0.0 mm
04:25 80.8 °F /  27.1 °C 62.6 °F /  17.0 °C 29.9 in /  1013.8 hPa SE 1 mph /  1.6 km/h 2 mph /  3.2 km/h 54 % 0 in /  0.0 mm
04:35 82.2 °F /  27.9 °C 62.8 °F /  17.1 °C 29.9 in /  1013.8 hPa SSE 1 mph /  1.6 km/h 2 mph /  3.2 km/h 52 % 0 in /  0.0 mm
04:45 82.6 °F /  28.1 °C 63.1 °F /  17.3 °C 29.9 in /  1013.8 hPa SSW 1 mph /  1.6 km/h 1 mph /  1.6 km/h 52 % 0 in /  0.0 mm
04:55 82.9 °F /  28.3 °C 63.5 °F /  17.5 °C 29.9 in /  1013.8 hPa SW 1 mph /  1.6 km/h 2 mph /  3.2 km/h 52 % 0 in /  0.0 mm
05:05 85.1 °F /  29.5 °C 64.4 °F /  18.0 °C 29.9 in /  1013.8 hPa South 1 mph /  1.6 km/h 2 mph /  3.2 km/h 50 % 0 in /  0.0 mm
10:16 86.5 °F /  30.3 °C 64.6 °F /  18.1 °C 29.9 in /  1013.8 hPa ESE 2.6 mph /  4.2 km/h 2.6 mph /  4.2 km/h 48 % 0 in /  0.0 mm
10:21 87.3 °F /  30.7 °C 65.1 °F /  18.4 °C 29.9 in /  1013.8 hPa ESE 1.2 mph /  1.9 km/h   48 % 0 in /  0.0 mm
10:26 87.1 °F /  30.6 °C 64.4 °F /  18.0 °C 29.9 in /  1013.8 hPa WNW 2.3 mph /  3.7 km/h 2.3 mph /  3.7 km/h 47 % 0 in /  0.0 mm
10:31 88.5 °F /  31.4 °C 65.1 °F /  18.4 °C 29.9 in /  1013.8 hPa SSE 3.1 mph /  5.0 km/h 3.1 mph /  5.0 km/h 46 % 0 in /  0.0 mm
10:36 89.2 °F /  31.8 °C 65.8 °F /  18.8 °C 30 in /  1014.8 hPa ESE 2.3 mph /  3.7 km/h 2.3 mph /  3.7 km/h 46 % 0 in /  0.0 mm
10:41 89.8 °F /  32.1 °C 65.7 °F /  18.7 °C 30 in /  1014.8 hPa ESE 2.3 mph /  3.7 km/h 2.3 mph /  3.7 km/h 45 % 0 in /  0.0 mm
10:46 90 °F /  32.2 °C 65.8 °F /  18.8 °C 30 in /  1014.8 hPa SSE 1.6 mph /  2.6 km/h 1.6 mph /  2.6 km/h 45 % 0 in /  0.0 mm
10:51 91 °F /  32.8 °C 66 °F /  18.9 °C 29.9 in /  1013.8 hPa SW 3.5 mph /  5.6 km/h 3.5 mph /  5.6 km/h 44 % 0 in /  0.0 mm
10:56 91.6 °F /  33.1 °C 65.8 °F /  18.8 °C 29.9 in /  1013.8 hPa SSW 3.8 mph /  6.1 km/h 3.8 mph /  6.1 km/h 43 % 0 in /  0.0 mm
11:01 91.9 °F /  33.3 °C 66.2 °F /  19.0 °C 29.9 in /  1013.8 hPa SW 2.3 mph /  3.7 km/h 2.3 mph /  3.7 km/h 43 % 0 in /  0.0 mm
11:06 93 °F /  33.9 °C 66.6 °F /  19.2 °C 29.9 in /  1013.8 hPa SSE 1.2 mph /  1.9 km/h 1.2 mph /  1.9 km/h 42 % 0 in /  0.0 mm
11:11 93 °F /  33.9 °C 66.6 °F /  19.2 °C 29.9 in /  1013.8 hPa ESE 3.5 mph /  5.6 km/h 3.5 mph /  5.6 km/h 42 % 0 in /  0.0 mm
11:16 92.7 °F /  33.7 °C 66.2 °F /  19.0 °C 29.9 in /  1013.8 hPa SSW 4.6 mph /  7.4 km/h 4.6 mph /  7.4 km/h 42 % 0 in /  0.0 mm
11:21 92.5 °F /  33.6 °C 65.5 °F /  18.6 °C 29.9 in /  1013.8 hPa SW 3.5 mph /  5.6 km/h 3.5 mph /  5.6 km/h 41 % 0 in /  0.0 mm
11:26 93.4 °F /  34.1 °C 65.5 °F /  18.6 °C 29.9 in /  1013.8 hPa SSW 4.6 mph /  7.4 km/h 4.6 mph /  7.4 km/h 40 % 0 in /  0.0 mm
11:27 93.6 °F /  34.2 °C 66.4 °F /  19.1 °C 29.9 in /  1013.8 hPa SW 3.6 mph /  5.8 km/h 3.6 mph /  5.8 km/h 41 % 0 in /  0.0 mm
11:32 93.2 °F /  34.0 °C 65.3 °F /  18.5 °C 29.9 in /  1013.8 hPa West 4.6 mph /  7.4 km/h 4.6 mph /  7.4 km/h 40 % 0 in /  0.0 mm
11:37 94.3 °F /  34.6 °C 65.5 °F /  18.6 °C 29.9 in /  1013.8 hPa ESE 1.2 mph /  1.9 km/h 1.2 mph /  1.9 km/h 39 % 0 in /  0.0 mm
11:42 94.6 °F /  34.8 °C 65.1 °F /  18.4 °C 29.9 in /  1013.8 hPa SW 5.8 mph /  9.3 km/h 5.8 mph /  9.3 km/h 38 % 0 in /  0.0 mm
11:47 95.2 °F /  35.1 °C 64 °F /  17.8 °C 29.9 in /  1013.8 hPa South 4.6 mph /  7.4 km/h 4.6 mph /  7.4 km/h 36 % 0 in /  0.0 mm
11:52 95 °F /  35.0 °C 63.9 °F /  17.7 °C 29.9 in /  1013.8 hPa SW 6.4 mph /  10.3 km/h 6.4 mph /  10.3 km/h 36 % 0 in /  0.0 mm
11:57 94.8 °F /  34.9 °C 62.1 °F /  16.7 °C 29.9 in /  1013.8 hPa South 5.8 mph /  9.3 km/h 5.8 mph /  9.3 km/h 34 % 0 in /  0.0 mm
12:02 96.4 °F /  35.8 °C 64.2 °F /  17.9 °C 29.9 in /  1013.8 hPa West 3.3 mph /  5.3 km/h 3.3 mph /  5.3 km/h 35 % 0 in /  0.0 mm
12:07 95.9 °F /  35.5 °C 63 °F /  17.2 °C 29.9 in /  1013.8 hPa WSW 4.6 mph /  7.4 km/h 4.6 mph /  7.4 km/h 34 % 0 in /  0.0 mm
12:12 95.7 °F /  35.4 °C 62.1 °F /  16.7 °C 29.9 in /  1013.8 hPa SSW 9.2 mph /  14.8 km/h 9.2 mph /  14.8 km/h 33 % 0 in /  0.0 mm
12:17 96.3 °F /  35.7 °C 63.3 °F /  17.4 °C 29.9 in /  1013.8 hPa ESE 3.5 mph /  5.6 km/h 3.5 mph /  5.6 km/h 34 % 0 in /  0.0 mm
12:22 97.9 °F /  36.6 °C 64.8 °F /  18.2 °C 29.9 in /  1013.8 hPa SSW 6.4 mph /  10.3 km/h 6.4 mph /  10.3 km/h 34 % 0 in /  0.0 mm
12:27 96.8 °F /  36.0 °C 63 °F /  17.2 °C 29.9 in /  1013.8 hPa SW 4.6 mph /  7.4 km/h 4.6 mph /  7.4 km/h 33 % 0 in /  0.0 mm
12:32 97.2 °F /  36.2 °C 63.3 °F /  17.4 °C 29.9 in /  1013.8 hPa SW 4.6 mph /  7.4 km/h 4.6 mph /  7.4 km/h 33 % 0 in /  0.0 mm
12:37 98.1 °F /  36.7 °C 63.1 °F /  17.3 °C 29.9 in /  1013.8 hPa WSW 3.5 mph /  5.6 km/h 3.5 mph /  5.6 km/h 32 % 0 in /  0.0 mm
12:42 98.8 °F /  37.1 °C 63.9 °F /  17.7 °C 29.9 in /  1013.8 hPa WSW 3.8 mph /  6.1 km/h 3.8 mph /  6.1 km/h 32 % 0 in /  0.0 mm
12:47 98.1 °F /  36.7 °C 63.1 °F /  17.3 °C 29.9 in /  1012.8 hPa South 3.5 mph /  5.6 km/h 3.5 mph /  5.6 km/h 32 % 0 in /  0.0 mm
12:52 98.4 °F /  36.9 °C 63.5 °F /  17.5 °C 29.9 in /  1012.8 hPa WNW 5.8 mph /  9.3 km/h 5.8 mph /  9.3 km/h 32 % 0 in /  0.0 mm
12:57 99.7 °F /  37.6 °C 64.6 °F /  18.1 °C 29.9 in /  1012.8 hPa SSW 2.6 mph /  4.2 km/h 2.6 mph /  4.2 km/h 32 % 0 in /  0.0 mm
13:02 98.4 °F /  36.9 °C 62.6 °F /  17.0 °C 29.9 in /  1011.7 hPa SW 5.8 mph /  9.3 km/h 5.8 mph /  9.3 km/h 31 % 0 in /  0.0 mm
13:07 98.4 °F /  36.9 °C 62.6 °F /  17.0 °C 29.9 in /  1011.7 hPa South 3.5 mph /  5.6 km/h 3.5 mph /  5.6 km/h 31 % 0 in /  0.0 mm
13:12 99.5 °F /  37.5 °C 62.6 °F /  17.0 °C 29.9 in /  1011.7 hPa SW 6.9 mph /  11.1 km/h 6.9 mph /  11.1 km/h 30 % 0 in /  0.0 mm
13:17 99.1 °F /  37.3 °C 62.2 °F /  16.8 °C 29.9 in /  1011.7 hPa SSW 8.1 mph /  13.0 km/h 8.1 mph /  13.0 km/h 30 % 0 in /  0.0 mm
13:22 99.5 °F /  37.5 °C 62.6 °F /  17.0 °C 29.9 in /  1011.7 hPa SW 6.9 mph /  11.1 km/h 6.9 mph /  11.1 km/h 30 % 0 in /  0.0 mm
13:27 99 °F /  37.2 °C 62.1 °F /  16.7 °C 29.9 in /  1011.7 hPa South 3.5 mph /  5.6 km/h 3.5 mph /  5.6 km/h 30 % 0 in /  0.0 mm
13:32 100.2 °F /  37.9 °C 63.1 °F /  17.3 °C 29.9 in /  1011.7 hPa SSW 6.9 mph /  11.1 km/h 6.9 mph /  11.1 km/h 30 % 0 in /  0.0 mm
13:37 99.9 °F /  37.7 °C 63 °F /  17.2 °C 29.9 in /  1011.7 hPa WSW 4.6 mph /  7.4 km/h 4.6 mph /  7.4 km/h 30 % 0 in /  0.0 mm
13:42 100.6 °F /  38.1 °C 63.5 °F /  17.5 °C 29.9 in /  1011.7 hPa WSW 3.5 mph /  5.6 km/h 3.5 mph /  5.6 km/h 30 % 0 in /  0.0 mm
13:47 100.8 °F /  38.2 °C 63.7 °F /  17.6 °C 29.8 in /  1010.7 hPa West 7.4 mph /  11.9 km/h 7.4 mph /  11.9 km/h 30 % 0 in /  0.0 mm
13:52 99.7 °F /  37.6 °C 61.9 °F /  16.6 °C 29.8 in /  1010.7 hPa WSW 5.8 mph /  9.3 km/h 5.8 mph /  9.3 km/h 29 % 0 in /  0.0 mm
13:57 100.9 °F /  38.3 °C 62.8 °F /  17.1 °C 29.8 in /  1010.7 hPa SE 5.8 mph /  9.3 km/h 5.8 mph /  9.3 km/h 29 % 0 in /  0.0 mm
14:02 100.9 °F /  38.3 °C 62.8 °F /  17.1 °C 29.9 in /  1011.7 hPa SW 6.9 mph /  11.1 km/h 6.9 mph /  11.1 km/h 29 % 0 in /  0.0 mm
14:07 100.4 °F /  38.0 °C 62.4 °F /  16.9 °C 29.9 in /  1011.7 hPa SW 8.1 mph /  13.0 km/h 8.1 mph /  13.0 km/h 29 % 0 in /  0.0 mm
14:12 100.4 °F /  38.0 °C 62.4 °F /  16.9 °C 29.9 in /  1011.7 hPa SW 5.8 mph /  9.3 km/h 5.8 mph /  9.3 km/h 29 % 0 in /  0.0 mm
14:17 100.6 °F /  38.1 °C 62.4 °F /  16.9 °C 29.9 in /  1011.7 hPa WSW 4.7 mph /  7.6 km/h 4.7 mph /  7.6 km/h 29 % 0 in /  0.0 mm
14:22 100 °F /  37.8 °C 62.1 °F /  16.7 °C 29.9 in /  1011.7 hPa South 5.8 mph /  9.3 km/h 5.8 mph /  9.3 km/h 29 % 0 in /  0.0 mm
14:27 100.9 °F /  38.3 °C 62.8 °F /  17.1 °C 29.9 in /  1011.7 hPa SW 4.6 mph /  7.4 km/h 4.6 mph /  7.4 km/h 29 % 0 in /  0.0 mm
14:32 101.1 °F /  38.4 °C 63 °F /  17.2 °C 29.9 in /  1011.7 hPa SSW 5.8 mph /  9.3 km/h 5.8 mph /  9.3 km/h 29 % 0 in /  0.0 mm
14:37 100.4 °F /  38.0 °C 61.3 °F /  16.3 °C 29.9 in /  1011.7 hPa South 3.5 mph /  5.6 km/h 3.5 mph /  5.6 km/h 28 % 0 in /  0.0 mm
14:42 101.3 °F /  38.5 °C 63.1 °F /  17.3 °C 29.9 in /  1011.7 hPa SW 5.8 mph /  9.3 km/h 5.8 mph /  9.3 km/h 29 % 0 in /  0.0 mm
14:47 102 °F /  38.9 °C 63.9 °F /  17.7 °C 29.9 in /  1011.7 hPa West 9.2 mph /  14.8 km/h 9.2 mph /  14.8 km/h 29 % 0 in /  0.0 mm
14:48 102 °F /  38.9 °C 63.9 °F /  17.7 °C 29.9 in /  1011.7 hPa West 9.2 mph /  14.8 km/h 9.2 mph /  14.8 km/h 29 % 0 in /  0.0 mm
14:53 101.3 °F /  38.5 °C 62.2 °F /  16.8 °C 29.9 in /  1011.7 hPa SSW 6.9 mph /  11.1 km/h 6.9 mph /  11.1 km/h 28 % 0 in /  0.0 mm
14:58 100.4 °F /  38.0 °C 61.3 °F /  16.3 °C 29.9 in /  1011.7 hPa SW 8.1 mph /  13.0 km/h 8.1 mph /  13.0 km/h 28 % 0 in /  0.0 mm
15:03 100.8 °F /  38.2 °C 61.7 °F /  16.5 °C 29.9 in /  1011.7 hPa SE 5.8 mph /  9.3 km/h 5.8 mph /  9.3 km/h 28 % 0 in /  0.0 mm
15:08 100 °F /  37.8 °C 61.2 °F /  16.2 °C 29.9 in /  1011.7 hPa West 11.5 mph /  18.5 km/h 11.5 mph /  18.5 km/h 28 % 0 in /  0.0 mm
15:13 99.9 °F /  37.7 °C 61 °F /  16.1 °C 29.9 in /  1011.7 hPa SW 10.4 mph /  16.7 km/h 10.4 mph /  16.7 km/h 28 % 0 in /  0.0 mm
15:18 101.1 °F /  38.4 °C 62.1 °F /  16.7 °C 29.8 in /  1010.7 hPa SSW 4.6 mph /  7.4 km/h 4.6 mph /  7.4 km/h 28 % 0 in /  0.0 mm
15:23 101.3 °F /  38.5 °C 62.2 °F /  16.8 °C 29.8 in /  1010.7 hPa SSE 5.8 mph /  9.3 km/h 5.8 mph /  9.3 km/h 28 % 0 in /  0.0 mm
15:28 100.9 °F /  38.3 °C 61.9 °F /  16.6 °C 29.8 in /  1010.7 hPa SSW 9.2 mph /  14.8 km/h 9.2 mph /  14.8 km/h 28 % 0 in /  0.0 mm
15:33 100.9 °F /  38.3 °C 61.9 °F /  16.6 °C 29.8 in /  1010.7 hPa SW 6.9 mph /  11.1 km/h 6.9 mph /  11.1 km/h 28 % 0 in /  0.0 mm
15:38 100 °F /  37.8 °C 61.2 °F /  16.2 °C 29.8 in /  1010.7 hPa SW 9.2 mph /  14.8 km/h 9.2 mph /  14.8 km/h 28 % 0 in /  0.0 mm
15:43 100.4 °F /  38.0 °C 61.3 °F /  16.3 °C 29.8 in /  1010.7 hPa SW 5.8 mph /  9.3 km/h 6.2 mph /  10.0 km/h 28 % 0 in /  0.0 mm
15:48 99.7 °F /  37.6 °C 60.8 °F /  16.0 °C 29.8 in /  1010.7 hPa West 10.4 mph /  16.7 km/h 10.4 mph /  16.7 km/h 28 % 0 in /  0.0 mm
15:53 100 °F /  37.8 °C 61.2 °F /  16.2 °C 29.8 in /  1010.7 hPa SW 5.8 mph /  9.3 km/h 5.8 mph /  9.3 km/h 28 % 0 in /  0.0 mm
15:58 99.7 °F /  37.6 °C 60.8 °F /  16.0 °C 29.8 in /  1010.7 hPa SW 10.4 mph /  16.7 km/h 10.4 mph /  16.7 km/h 28 % 0 in /  0.0 mm
16:03 100.4 °F /  38.0 °C 61.3 °F /  16.3 °C 29.8 in /  1010.7 hPa SW 8.1 mph /  13.0 km/h 8.1 mph /  13.0 km/h 28 % 0 in /  0.0 mm
16:08 100.6 °F /  38.1 °C 61.5 °F /  16.4 °C 29.8 in /  1010.7 hPa SW 8.1 mph /  13.0 km/h 8.1 mph /  13.0 km/h 28 % 0 in /  0.0 mm
16:13 100.8 °F /  38.2 °C 61.7 °F /  16.5 °C 29.8 in /  1010.7 hPa WSW 8.1 mph /  13.0 km/h 8.1 mph /  13.0 km/h 28 % 0 in /  0.0 mm
16:18 100.2 °F /  37.9 °C 61.2 °F /  16.2 °C 29.8 in /  1010.0 hPa SW 10.4 mph /  16.7 km/h 10.4 mph /  16.7 km/h 28 % 0 in /  0.0 mm
16:23 100.6 °F /  38.1 °C 61.5 °F /  16.4 °C 29.8 in /  1010.0 hPa West 6.9 mph /  11.1 km/h 6.9 mph /  11.1 km/h 28 % 0 in /  0.0 mm
16:28 99.7 °F /  37.6 °C 60.8 °F /  16.0 °C 29.8 in /  1010.0 hPa SW 9.2 mph /  14.8 km/h 9.2 mph /  14.8 km/h 28 % 0 in /  0.0 mm
16:33 100.4 °F /  38.0 °C 61.3 °F /  16.3 °C 29.8 in /  1010.0 hPa SSE 5.8 mph /  9.3 km/h 5.8 mph /  9.3 km/h 28 % 0 in /  0.0 mm
16:38 100.9 °F /  38.3 °C 61.9 °F /  16.6 °C 29.8 in /  1010.0 hPa South 5.8 mph /  9.3 km/h 5.8 mph /  9.3 km/h 28 % 0 in /  0.0 mm
16:43 100.9 °F /  38.3 °C 61.9 °F /  16.6 °C 29.8 in /  1010.0 hPa SSW 6.2 mph /  10.0 km/h 6.2 mph /  10.0 km/h 28 % 0 in /  0.0 mm
16:48 100.6 °F /  38.1 °C 61.5 °F /  16.4 °C 29.8 in /  1010.7 hPa SSW 6 mph /  9.7 km/h 6 mph /  9.7 km/h 28 % 0 in /  0.0 mm
16:53 100.4 °F /  38.0 °C 61.3 °F /  16.3 °C 29.8 in /  1010.7 hPa WSW 4.6 mph /  7.4 km/h 4.6 mph /  7.4 km/h 28 % 0 in /  0.0 mm
16:58 100.4 °F /  38.0 °C 61.3 °F /  16.3 °C 29.8 in /  1010.7 hPa WSW 6.9 mph /  11.1 km/h 6.9 mph /  11.1 km/h 28 % 0 in /  0.0 mm
17:00 100.6 °F /  38.1 °C 61.5 °F /  16.4 °C 29.8 in /  1010.7 hPa SW 8.1 mph /  13.0 km/h 8.1 mph /  13.0 km/h 28 % 0 in /  0.0 mm
17:05 100.6 °F /  38.1 °C 61.5 °F /  16.4 °C 29.8 in /  1010.0 hPa West 5.8 mph /  9.3 km/h 5.8 mph /  9.3 km/h 28 % 0 in /  0.0 mm
17:10 99.5 °F /  37.5 °C 60.6 °F /  15.9 °C 29.8 in /  1010.0 hPa SW 5.8 mph /  9.3 km/h 5.8 mph /  9.3 km/h 28 % 0 in /  0.0 mm
17:15 99.7 °F /  37.6 °C 60.8 °F /  16.0 °C 29.8 in /  1010.0 hPa South 4.6 mph /  7.4 km/h 4.6 mph /  7.4 km/h 28 % 0 in /  0.0 mm
17:20 99.9 °F /  37.7 °C 61 °F /  16.1 °C 29.8 in /  1010.7 hPa ESE 3.8 mph /  6.1 km/h 3.8 mph /  6.1 km/h 28 % 0 in /  0.0 mm
17:25 98.2 °F /  36.8 °C 59.5 °F /  15.3 °C 29.8 in /  1010.7 hPa WSW 3.5 mph /  5.6 km/h 3.5 mph /  5.6 km/h 28 % 0 in /  0.0 mm
17:30 99 °F /  37.2 °C 60.3 °F /  15.7 °C 29.8 in /  1010.7 hPa SSW 8.1 mph /  13.0 km/h 8.1 mph /  13.0 km/h 28 % 0 in /  0.0 mm
17:35 99 °F /  37.2 °C 60.3 °F /  15.7 °C 29.8 in /  1010.7 hPa North 3.8 mph /  6.1 km/h 3.8 mph /  6.1 km/h 28 % 0 in /  0.0 mm
17:40 96.8 °F /  36.0 °C 59.4 °F /  15.2 °C 29.8 in /  1010.7 hPa North 3.5 mph /  5.6 km/h 3.5 mph /  5.6 km/h 29 % 0 in /  0.0 mm
17:45 96.8 °F /  36.0 °C 59.4 °F /  15.2 °C 29.8 in /  1010.7 hPa SSE 5.8 mph /  9.3 km/h 5.8 mph /  9.3 km/h 29 % 0 in /  0.0 mm
17:50 96.1 °F /  35.6 °C 58.6 °F /  14.8 °C 29.8 in /  1010.0 hPa West 4.9 mph /  7.9 km/h 4.9 mph /  7.9 km/h 29 % 0 in /  0.0 mm
17:55 96.6 °F /  35.9 °C 59.2 °F /  15.1 °C 29.8 in /  1010.0 hPa NE 2.3 mph /  3.7 km/h 2.3 mph /  3.7 km/h 29 % 0 in /  0.0 mm
18:00 96.4 °F /  35.8 °C 59 °F /  15.0 °C 29.8 in /  1010.0 hPa West 2.3 mph /  3.7 km/h 2.3 mph /  3.7 km/h 29 % 0 in /  0.0 mm
18:05 97 °F /  36.1 °C 59.5 °F /  15.3 °C 29.8 in /  1010.7 hPa ENE 3.1 mph /  5.0 km/h 3.1 mph /  5.0 km/h 29 % 0 in /  0.0 mm
18:10 97.2 °F /  36.2 °C 59.5 °F /  15.3 °C 29.8 in /  1010.7 hPa ENE 3.5 mph /  5.6 km/h 3.5 mph /  5.6 km/h 29 % 0 in /  0.0 mm
18:15 97.7 °F /  36.5 °C 60.1 °F /  15.6 °C 29.8 in /  1010.7 hPa SW 4.6 mph /  7.4 km/h 4.6 mph /  7.4 km/h 29 % 0 in /  0.0 mm
18:20 97.7 °F /  36.5 °C 60.1 °F /  15.6 °C 29.8 in /  1010.7 hPa SSW 2.3 mph /  3.7 km/h 2.3 mph /  3.7 km/h 29 % 0 in /  0.0 mm
18:25 95.7 °F /  35.4 °C 58.5 °F /  14.7 °C 29.8 in /  1010.7 hPa South 2.4 mph /  3.9 km/h 2.4 mph /  3.9 km/h 29 % 0 in /  0.0 mm
18:30 96.4 °F /  35.8 °C 59 °F /  15.0 °C 29.8 in /  1010.7 hPa SW 5.8 mph /  9.3 km/h 5.8 mph /  9.3 km/h 29 % 0 in /  0.0 mm
18:35 96.1 °F /  35.6 °C 58.6 °F /  14.8 °C 29.8 in /  1010.7 hPa North 8.1 mph /  13.0 km/h 8.1 mph /  13.0 km/h 29 % 0 in /  0.0 mm
18:40 94.5 °F /  34.7 °C 59.2 °F /  15.1 °C 29.8 in /  1010.7 hPa ENE 5.8 mph /  9.3 km/h 5.8 mph /  9.3 km/h 31 % 0 in /  0.0 mm
18:41 94.5 °F /  34.7 °C 59.2 °F /  15.1 °C 29.8 in /  1010.7 hPa East 3.5 mph /  5.6 km/h 3.5 mph /  5.6 km/h 31 % 0 in /  0.0 mm
18:46 93 °F /  33.9 °C 59.7 °F /  15.4 °C 29.8 in /  1010.7 hPa NE 3.5 mph /  5.6 km/h 3.5 mph /  5.6 km/h 33 % 0 in /  0.0 mm
18:51 92.7 °F /  33.7 °C 59.4 °F /  15.2 °C 29.8 in /  1010.7 hPa SSE 2.9 mph /  4.7 km/h 2.9 mph /  4.7 km/h 33 % 0 in /  0.0 mm
18:56 92.5 °F /  33.6 °C 59.2 °F /  15.1 °C 29.8 in /  1010.7 hPa ESE 3.5 mph /  5.6 km/h 3.5 mph /  5.6 km/h 33 % 0 in /  0.0 mm
19:01 91.8 °F /  33.2 °C 59.4 °F /  15.2 °C 29.9 in /  1011.7 hPa East 7.1 mph /  11.4 km/h 7.1 mph /  11.4 km/h 34 % 0 in /  0.0 mm
19:06 91.2 °F /  32.9 °C 60.4 °F /  15.8 °C 29.9 in /  1011.7 hPa ESE 5.8 mph /  9.3 km/h 5.8 mph /  9.3 km/h 36 % 0 in /  0.0 mm
19:11 90.9 °F /  32.7 °C 60.3 °F /  15.7 °C 29.9 in /  1011.7 hPa SE 6.9 mph /  11.1 km/h 6.9 mph /  11.1 km/h 36 % 0 in /  0.0 mm
19:16 90.5 °F /  32.5 °C 60.6 °F /  15.9 °C 29.9 in /  1011.7 hPa ENE 2.3 mph /  3.7 km/h 2.3 mph /  3.7 km/h 37 % 0 in /  0.0 mm
19:21 90.5 °F /  32.5 °C 60.6 °F /  15.9 °C 29.9 in /  1011.7 hPa East 2.3 mph /  3.7 km/h 2.3 mph /  3.7 km/h 37 % 0 in /  0.0 mm
19:25 79.2 °F /  26.2 °C 65.5 °F /  18.6 °C 29.9 in /  1013.8 hPa Calm   1 mph /  1.6 km/h 63 % 0 in /  0.0 mm
19:26 90.5 °F /  32.5 °C 60.6 °F /  15.9 °C 29.9 in /  1011.7 hPa WSW 4.6 mph /  7.4 km/h 4.6 mph /  7.4 km/h 37 % 0 in /  0.0 mm
19:31 91 °F /  32.8 °C 61.2 °F /  16.2 °C 29.9 in /  1011.7 hPa South 3.3 mph /  5.3 km/h 3.3 mph /  5.3 km/h 37 % 0 in /  0.0 mm
19:35 79 °F /  26.1 °C 65.3 °F /  18.5 °C 29.9 in /  1013.8 hPa Calm     63 % 0 in /  0.0 mm
19:36 91.2 °F /  32.9 °C 61.3 °F /  16.3 °C 29.9 in /  1011.7 hPa SW 3.5 mph /  5.6 km/h 3.5 mph /  5.6 km/h 37 % 0 in /  0.0 mm
19:41 91.2 °F /  32.9 °C 61.3 °F /  16.3 °C 29.9 in /  1011.7 hPa SW 2.3 mph /  3.7 km/h 2.3 mph /  3.7 km/h 37 % 0 in /  0.0 mm
19:45 78.8 °F /  26.0 °C 65.7 °F /  18.7 °C 29.9 in /  1013.8 hPa West 1 mph /  1.6 km/h 2 mph /  3.2 km/h 64 % 0 in /  0.0 mm
19:46 91.6 °F /  33.1 °C 61 °F /  16.1 °C 29.9 in /  1011.7 hPa WSW 4.6 mph /  7.4 km/h 4.6 mph /  7.4 km/h 36 % 0 in /  0.0 mm
19:51 91.2 °F /  32.9 °C 61.3 °F /  16.3 °C 29.9 in /  1011.7 hPa NE 4.6 mph /  7.4 km/h 4.6 mph /  7.4 km/h 37 % 0 in /  0.0 mm
19:55 78.4 °F /  25.8 °C 64.8 °F /  18.2 °C 29.9 in /  1013.8 hPa Calm   1 mph /  1.6 km/h 63 % 0 in /  0.0 mm
19:56 90 °F /  32.2 °C 61 °F /  16.1 °C 29.9 in /  1011.7 hPa South 3.5 mph /  5.6 km/h 3.5 mph /  5.6 km/h 38 % 0 in /  0.0 mm
20:01 88.7 °F /  31.5 °C 60.6 °F /  15.9 °C 29.9 in /  1011.7 hPa ENE 3.5 mph /  5.6 km/h 3.5 mph /  5.6 km/h 39 % 0 in /  0.0 mm
20:05 78.1 °F /  25.6 °C 64.6 °F /  18.1 °C 29.9 in /  1013.8 hPa Calm   2 mph /  3.2 km/h 63 % 0 in /  0.0 mm
20:06 88 °F /  31.1 °C 60.6 °F /  15.9 °C 29.9 in /  1011.7 hPa NE 2.6 mph /  4.2 km/h 2.6 mph /  4.2 km/h 40 % 0 in /  0.0 mm
20:11 87.4 °F /  30.8 °C 61.5 °F /  16.4 °C 29.9 in /  1011.7 hPa ENE 4.6 mph /  7.4 km/h 4.6 mph /  7.4 km/h 42 % 0 in /  0.0 mm
20:15 77.7 °F /  25.4 °C 64 °F /  17.8 °C 29.9 in /  1013.8 hPa SW 1 mph /  1.6 km/h 2 mph /  3.2 km/h 63 % 0 in /  0.0 mm
20:16 86.7 °F /  30.4 °C 61.5 °F /  16.4 °C 29.9 in /  1011.7 hPa ENE 5.8 mph /  9.3 km/h 5.8 mph /  9.3 km/h 43 % 0 in /  0.0 mm
20:21 86.2 °F /  30.1 °C 61.7 °F /  16.5 °C 29.9 in /  1011.7 hPa NE 6.9 mph /  11.1 km/h 6.9 mph /  11.1 km/h 44 % 0 in /  0.0 mm
20:25 77.5 °F /  25.3 °C 64.4 °F /  18.0 °C 29.9 in /  1013.8 hPa Calm   1 mph /  1.6 km/h 64 % 0 in /  0.0 mm
20:26 86 °F /  30.0 °C 62.2 °F /  16.8 °C 29.9 in /  1011.7 hPa ESE 5.8 mph /  9.3 km/h 5.8 mph /  9.3 km/h 45 % 0 in /  0.0 mm
20:31 85.6 °F /  29.8 °C 62.4 °F /  16.9 °C 29.8 in /  1010.7 hPa ESE 4.6 mph /  7.4 km/h 4.6 mph /  7.4 km/h 46 % 0 in /  0.0 mm
20:35 77.4 °F /  25.2 °C 64.8 °F /  18.2 °C 30 in /  1014.8 hPa WSW 1 mph /  1.6 km/h 2 mph /  3.2 km/h 65 % 0 in /  0.0 mm
20:36 85.5 °F /  29.7 °C 62.2 °F /  16.8 °C 29.8 in /  1010.7 hPa East 5.8 mph /  9.3 km/h 5.8 mph /  9.3 km/h 46 % 0 in /  0.0 mm
20:41 85.3 °F /  29.6 °C 62.8 °F /  17.1 °C 29.8 in /  1010.7 hPa East 5.8 mph /  9.3 km/h 5.8 mph /  9.3 km/h 47 % 0 in /  0.0 mm
20:45 77.2 °F /  25.1 °C 64 °F /  17.8 °C 30 in /  1014.8 hPa WSW 2 mph /  3.2 km/h 2 mph /  3.2 km/h 64 % 0 in /  0.0 mm
20:46 84.9 °F /  29.4 °C 63 °F /  17.2 °C 29.9 in /  1011.7 hPa NNE 5.8 mph /  9.3 km/h 5.8 mph /  9.3 km/h 48 % 0 in /  0.0 mm
20:51 84.6 °F /  29.2 °C 62.8 °F /  17.1 °C 29.9 in /  1011.7 hPa ENE 6.9 mph /  11.1 km/h 6.9 mph /  11.1 km/h 48 % 0 in /  0.0 mm
20:55 76.8 °F /  24.9 °C 64.6 °F /  18.1 °C 29.9 in /  1013.8 hPa SW 1 mph /  1.6 km/h 2 mph /  3.2 km/h 66 % 0 in /  0.0 mm
20:56 84.4 °F /  29.1 °C 63.1 °F /  17.3 °C 29.9 in /  1011.7 hPa ESE 5.8 mph /  9.3 km/h 5.8 mph /  9.3 km/h 49 % 0 in /  0.0 mm
21:01 84 °F /  28.9 °C 63.9 °F /  17.7 °C 29.9 in /  1011.7 hPa ENE 4.6 mph /  7.4 km/h 4.6 mph /  7.4 km/h 51 % 0 in /  0.0 mm
21:05 76.6 °F /  24.8 °C 64.4 °F /  18.0 °C 29.9 in /  1013.8 hPa SW 1 mph /  1.6 km/h 2 mph /  3.2 km/h 66 % 0 in /  0.0 mm
21:06 83.8 °F /  28.8 °C 63.9 °F /  17.7 °C 29.9 in /  1011.7 hPa ENE 5.8 mph /  9.3 km/h 5.8 mph /  9.3 km/h 51 % 0 in /  0.0 mm
21:11 83.5 °F /  28.6 °C 64 °F /  17.8 °C 29.9 in /  1011.7 hPa NE 5.8 mph /  9.3 km/h 5.8 mph /  9.3 km/h 52 % 0 in /  0.0 mm
21:15 76.6 °F /  24.8 °C 64.9 °F /  18.3 °C 29.9 in /  1013.8 hPa WSW 1 mph /  1.6 km/h 1 mph /  1.6 km/h 67 % 0 in /  0.0 mm
21:16 83.5 °F /  28.6 °C 64.6 °F /  18.1 °C 29.9 in /  1011.7 hPa East 5.8 mph /  9.3 km/h 5.8 mph /  9.3 km/h 53 % 0 in /  0.0 mm
21:21 83.1 °F /  28.4 °C 64.2 °F /  17.9 °C 29.9 in /  1011.7 hPa ESE 4.6 mph /  7.4 km/h 4.6 mph /  7.4 km/h 53 % 0 in /  0.0 mm
21:25 76.6 °F /  24.8 °C 64.9 °F /  18.3 °C 29.9 in /  1013.8 hPa SW 1 mph /  1.6 km/h 2 mph /  3.2 km/h 67 % 0 in /  0.0 mm
21:26 82.9 °F /  28.3 °C 65.1 °F /  18.4 °C 29.9 in /  1011.7 hPa ENE 4.7 mph /  7.6 km/h 4.7 mph /  7.6 km/h 55 % 0 in /  0.0 mm
21:31 82.6 °F /  28.1 °C 64.8 °F /  18.2 °C 29.9 in /  1011.7 hPa East 5.8 mph /  9.3 km/h 5.8 mph /  9.3 km/h 55 % 0 in /  0.0 mm
21:35 76.5 °F /  24.7 °C 65.1 °F /  18.4 °C 29.9 in /  1013.8 hPa WSW 1 mph /  1.6 km/h 2 mph /  3.2 km/h 68 % 0 in /  0.0 mm
21:36 82.6 °F /  28.1 °C 65.3 °F /  18.5 °C 29.9 in /  1011.7 hPa NE 4.6 mph /  7.4 km/h 4.6 mph /  7.4 km/h 56 % 0 in /  0.0 mm
21:41 82.4 °F /  28.0 °C 65.1 °F /  18.4 °C 29.9 in /  1011.7 hPa East 5.8 mph /  9.3 km/h 5.8 mph /  9.3 km/h 56 % 0 in /  0.0 mm
21:45 76.1 °F /  24.5 °C 64.8 °F /  18.2 °C 29.9 in /  1013.8 hPa Calm     68 % 0 in /  0.0 mm
21:46 82.2 °F /  27.9 °C 65.5 °F /  18.6 °C 29.9 in /  1012.8 hPa ESE 5.8 mph /  9.3 km/h 5.8 mph /  9.3 km/h 57 % 0 in /  0.0 mm
21:51 82 °F /  27.8 °C 65.3 °F /  18.5 °C 29.9 in /  1012.8 hPa ENE 4.6 mph /  7.4 km/h 4.6 mph /  7.4 km/h 57 % 0 in /  0.0 mm
21:55 76.1 °F /  24.5 °C 64.8 °F /  18.2 °C 29.9 in /  1013.8 hPa Calm   1 mph /  1.6 km/h 68 % 0 in /  0.0 mm
21:56 81.9 °F /  27.7 °C 65.7 °F /  18.7 °C 29.9 in /  1012.8 hPa East 5.8 mph /  9.3 km/h 5.8 mph /  9.3 km/h 58 % 0 in /  0.0 mm
22:01 81.9 °F /  27.7 °C 65.7 °F /  18.7 °C 29.9 in /  1013.8 hPa ESE 5.6 mph /  9.0 km/h 5.6 mph /  9.0 km/h 58 % 0 in /  0.0 mm
22:05 75.9 °F /  24.4 °C 64.9 °F /  18.3 °C 29.9 in /  1012.8 hPa Calm     69 % 0 in /  0.0 mm
22:06 81.7 °F /  27.6 °C 66 °F /  18.9 °C 29.9 in /  1013.8 hPa East 4.6 mph /  7.4 km/h 4.6 mph /  7.4 km/h 59 % 0 in /  0.0 mm
22:11 81.5 °F /  27.5 °C 65.3 °F /  18.5 °C 29.9 in /  1013.8 hPa East 3.5 mph /  5.6 km/h 3.5 mph /  5.6 km/h 58 % 0 in /  0.0 mm
22:15 75.7 °F /  24.3 °C 64.4 °F /  18.0 °C 29.9 in /  1012.8 hPa Calm   2 mph /  3.2 km/h 68 % 0 in /  0.0 mm
22:16 81.5 °F /  27.5 °C 66.4 °F /  19.1 °C 29.9 in /  1013.8 hPa ESE 5.8 mph /  9.3 km/h 5.8 mph /  9.3 km/h 60 % 0 in /  0.0 mm
22:21 81.3 °F /  27.4 °C 66 °F /  18.9 °C 29.9 in /  1013.8 hPa East 3.6 mph /  5.8 km/h 3.6 mph /  5.8 km/h 60 % 0 in /  0.0 mm
22:25 75.7 °F /  24.3 °C 64.8 °F /  18.2 °C 29.9 in /  1013.8 hPa Calm   1 mph /  1.6 km/h 69 % 0 in /  0.0 mm
22:26 81.3 °F /  27.4 °C 66 °F /  18.9 °C 29.9 in /  1013.8 hPa ENE 4 mph /  6.4 km/h 4 mph /  6.4 km/h 60 % 0 in /  0.0 mm
22:31 81.1 °F /  27.3 °C 65.8 °F /  18.8 °C 29.9 in /  1013.8 hPa ENE 3.8 mph /  6.1 km/h 3.8 mph /  6.1 km/h 60 % 0 in /  0.0 mm
22:35 75.7 °F /  24.3 °C 64.8 °F /  18.2 °C 29.9 in /  1013.8 hPa Calm     69 % 0 in /  0.0 mm
22:36 81.1 °F /  27.3 °C 65.8 °F /  18.8 °C 29.9 in /  1013.8 hPa East 3.6 mph /  5.8 km/h 3.6 mph /  5.8 km/h 60 % 0 in /  0.0 mm
22:41 81 °F /  27.2 °C 65.8 °F /  18.8 °C 29.9 in /  1013.8 hPa ENE 3.5 mph /  5.6 km/h 3.5 mph /  5.6 km/h 60 % 0 in /  0.0 mm
22:45 75.6 °F /  24.2 °C 64.8 °F /  18.2 °C 29.9 in /  1013.8 hPa Calm     69 % 0 in /  0.0 mm
22:46 81 °F /  27.2 °C 66.2 °F /  19.0 °C 29.9 in /  1013.8 hPa ESE 2.3 mph /  3.7 km/h 2.3 mph /  3.7 km/h 61 % 0 in /  0.0 mm
22:50 75.7 °F /  24.3 °C 65.3 °F /  18.5 °C 29.9 in /  1013.8 hPa Calm     70 % 0 in /  0.0 mm
22:51 80.8 °F /  27.1 °C 66 °F /  18.9 °C 29.9 in /  1013.8 hPa East 2.4 mph /  3.9 km/h 2.4 mph /  3.9 km/h 61 % 0 in /  0.0 mm
22:56 80.8 °F /  27.1 °C 66 °F /  18.9 °C 29.9 in /  1013.8 hPa East 3.5 mph /  5.6 km/h 3.5 mph /  5.6 km/h 61 % 0 in /  0.0 mm
23:00 75.9 °F /  24.4 °C 65.5 °F /  18.6 °C 29.9 in /  1013.8 hPa Calm     70 % 0 in /  0.0 mm
23:01 80.8 °F /  27.1 °C 66 °F /  18.9 °C 29.9 in /  1013.8 hPa East 2.3 mph /  3.7 km/h 2.3 mph /  3.7 km/h 61 % 0 in /  0.0 mm
23:06 80.6 °F /  27.0 °C 65.8 °F /  18.8 °C 29.9 in /  1013.8 hPa ESE 1.2 mph /  1.9 km/h   61 % 0 in /  0.0 mm
23:10 75.4 °F /  24.1 °C 64.6 °F /  18.1 °C 29.9 in /  1013.8 hPa Calm   1 mph /  1.6 km/h 69 % 0 in /  0.0 mm
23:11 80.6 °F /  27.0 °C 65.5 °F /  18.6 °C 29.9 in /  1013.8 hPa WSW 3.3 mph /  5.3 km/h 3.3 mph /  5.3 km/h 60 % 0 in /  0.0 mm
23:16 80.4 °F /  26.9 °C 65.7 °F /  18.7 °C 29.9 in /  1013.8 hPa WSW 2.3 mph /  3.7 km/h 2.3 mph /  3.7 km/h 61 % 0 in /  0.0 mm
23:20 74.7 °F /  23.7 °C 64.6 °F /  18.1 °C 29.9 in /  1013.8 hPa SW 1 mph /  1.6 km/h 2 mph /  3.2 km/h 71 % 0 in /  0.0 mm
23:21 80.2 °F /  26.8 °C 66 °F /  18.9 °C 29.9 in /  1013.8 hPa SW 1.2 mph /  1.9 km/h   62 % 0 in /  0.0 mm
23:22 80.2 °F /  26.8 °C 66 °F /  18.9 °C 29.9 in /  1013.8 hPa SW 1.4 mph /  2.3 km/h 1.4 mph /  2.3 km/h 62 % 0 in /  0.0 mm
23:27 80.1 °F /  26.7 °C 65.8 °F /  18.8 °C 29.9 in /  1013.8 hPa WSW 1.2 mph /  1.9 km/h 1.2 mph /  1.9 km/h 62 % 0 in /  0.0 mm
23:30 74.7 °F /  23.7 °C 64.6 °F /  18.1 °C 29.9 in /  1013.8 hPa Calm   1 mph /  1.6 km/h 71 % 0 in /  0.0 mm
23:32 80.1 °F /  26.7 °C 65.8 °F /  18.8 °C 29.9 in /  1013.8 hPa SW 1.2 mph /  1.9 km/h 1.2 mph /  1.9 km/h 62 % 0 in /  0.0 mm
23:37 79.9 °F /  26.6 °C 65.7 °F /  18.7 °C 29.9 in /  1013.8 hPa SW 1.2 mph /  1.9 km/h 1.6 mph /  2.6 km/h 62 % 0 in /  0.0 mm
23:40 74.8 °F /  23.8 °C 64.8 °F /  18.2 °C 29.9 in /  1013.8 hPa WSW 1 mph /  1.6 km/h 2 mph /  3.2 km/h 71 % 0 in /  0.0 mm
23:42 79.7 °F /  26.5 °C 65.5 °F /  18.6 °C 29.9 in /  1013.8 hPa WSW 1.2 mph /  1.9 km/h   62 % 0 in /  0.0 mm
23:47 79.7 °F /  26.5 °C 66 °F /  18.9 °C 29.9 in /  1013.8 hPa SW 2.2 mph /  3.5 km/h 2.2 mph /  3.5 km/h 63 % 0 in /  0.0 mm
23:50 74.8 °F /  23.8 °C 64.8 °F /  18.2 °C 29.9 in /  1013.8 hPa Calm   2 mph /  3.2 km/h 71 % 0 in /  0.0 mm
23:52 79.5 °F /  26.4 °C 65.8 °F /  18.8 °C 29.9 in /  1013.8 hPa Calm     63 % 0 in /  0.0 mm
23:57 79.5 °F /  26.4 °C 65.8 °F /  18.8 °C 29.9 in /  1013.8 hPa SW 2.3 mph /  3.7 km/h 2.3 mph /  3.7 km/h 63 % 0 in /  0.0 mm
Meteo Sesrovires
Elogis d' Weather Underground - 3.75 mb

Guio original per  Jim McMurry - jmcmurry@mwt.net Adaptat per a la plantilla per  Wim van der Kuil - Leuven-Template.eu

Trobareu la nostra informacio del temps tambe a:

Weather Underground

AWEKAS